Sho Ito

Ojeador - Kashima Antlers
13 Ene 2028
Jueves
Continuar

Personalidad

Adaptabilidad (15) Ambición (17) Controversia (8) Lealtad (18) Presión (5) Profesionalismo (9) Deportividad (1) Temperamento (19)

Perfil

Estilo de dirección Democrático
Licencia Nacional B
Determinación 6
Gestión de personas 4
Motivación 5
Disciplina 11
Satisfacción laboral
100%
Fatiga
0%
Cargo Ojeador
Salario 48.6K p/s
Contrato 14.03.2028

Rendimiento

Comportamiento Bueno
Efectividad del entrenamiento
49%
Desarrollo de jugadores
30%
Prevención de lesiones
65%
Implementación táctica
50%

Eventos recientes

Asistió a una reunión de captación ahora
Recomendó un objetivo de fichaje ahora
Recomendó un objetivo de fichaje ahora
Recomendó un objetivo de fichaje ahora
Recomendó un objetivo de fichaje ahora
Recomendó un objetivo de fichaje ahora
Recomendó un objetivo de fichaje ahora
Recomendó un objetivo de fichaje ahora

Actualmente siguiendo

350
Jugador Club Estado Habilidad Confianza Observado Última observación Último voto
Yuto Ozeki Yokohama F. Marinos Activo 132 / 132 40% 4 05.01.2028 -
Breno Bidon Corinthians Activo 128 / 133 40% 2 05.01.2028 -
Kobbie Mainoo Leicester City Activo 157 / 162 40% 2 05.01.2028 -
Mao Hosoya Everton Negociando 134 / 135 67% 1 05.01.2028 -
Nicolás Fernández Mercau Independiente Activo 134 / 134 90% 1 05.01.2028 Aprobar
Kento Hashimoto FC Tokyo Informe listo 113 / 114 76% 1 05.01.2028 -
Tojiro Kubo Kashiwa Reysol Activo 137 / 131 40% 2 04.01.2028 -
Zian Flemming Ipswich Town Activo 141 / 141 40% 8 04.01.2028 -
Callum O'Hare Sheffield United Activo 137 / 136 40% 4 04.01.2028 -
Erick Pulga Bahia Activo 129 / 127 40% 1 04.01.2028 -
Yuma Suzuki Urawa Reds Activo 138 / 141 40% 1 04.01.2028 -
Jayden Danns Wigan Athletic Activo 142 / 138 40% 1 04.01.2028 -
Manuel Ospina Cortulua Activo 138 / 132 40% 6 03.01.2028 -
Yota Komi Kashiwa Reysol Activo 123 / 128 40% 8 03.01.2028 -
Ferreirinha Sport Recife Activo 127 / 124 40% 6 03.01.2028 -
Borja Mayoral Getafe Activo 142 / 142 40% 3 03.01.2028 -
Luca Koleosho Paris FC Activo 137 / 135 40% 1 03.01.2028 -
Liam Delap Nottingham Forest Activo 148 / 157 40% 1 03.01.2028 -
Hirokazu Ishihara FC Tokyo Activo 135 / 137 40% 2 01.01.2028 -
Mateo Cassierra Atlético Mineiro Activo 135 / 130 40% 10 01.01.2028 -
Ez Abde Girona Activo 153 / 153 40% 2 01.01.2028 -
Jean Lucas Bahia Activo 143 / 134 40% 1 01.01.2028 -
Kimito Nono Sanfrecce Hiroshima Activo 124 / 136 40% 1 01.01.2028 -
Johan Manzambi Newcastle United Activo 144 / 151 40% 5 31.12.2027 -
Cristian Graciano Junior Activo 112 / 117 40% 2 31.12.2027 -
Samuel Gidi FC Cincinnati Activo 118 / 127 40% 2 31.12.2027 -
Mateo Castillo Millonarios Activo 129 / 123 40% 2 31.12.2027 -
Danilo Boza Fluminense Activo 132 / 123 40% 2 31.12.2027 -
Alfredo Giraldo La Equidad Activo 133 / 134 40% 1 31.12.2027 -
Emmanuel Sabbi Vancouver Whitecaps Activo 127 / 120 40% 4 30.12.2027 -
Louis Munteanu DC United Activo 141 / 126 40% 5 30.12.2027 -
Fábio Carvalho Sheffield Wednesday Activo 145 / 147 40% 2 30.12.2027 -
Toby Collyer West Bromwich Albion Activo 138 / 144 40% 1 29.12.2027 -
Jalen Neal CF Montreal Activo 130 / 120 40% 1 29.12.2027 -
Tetsushi Yamakawa Vissel Kobe Activo 128 / 128 40% 1 29.12.2027 -
Gustavo Marques Bragantino Activo 131 / 136 40% 1 29.12.2027 -
Matheus Bidu Corinthians Activo 128 / 131 40% 1 29.12.2027 -
Dejan Joveljić Seattle Sounders Activo 125 / 136 40% 4 27.12.2027 -
Riku Yamane Yokohama F. Marinos Activo 142 / 143 40% 4 27.12.2027 -
Yusuke Matsuo Esteghlal Activo 132 / 136 40% 2 27.12.2027 -
Ian Garguez Palestino Activo 108 / 113 40% 1 27.12.2027 -
Martín Ojeda Orlando City Activo 135 / 137 40% 7 26.12.2027 -
Breel Embolo Atlanta United FC Activo 135 / 134 40% 2 26.12.2027 -
Claudio Spinelli Vasco da Gama Activo 126 / 121 40% 3 25.12.2027 -
Negueba Mirassol Activo 131 / 126 40% 6 25.12.2027 -
Antony Alonso Deportivo Riestra Activo 118 / 123 40% 3 24.12.2027 -
Luciano Cosentino Wanderers Activo 119 / 123 40% 6 24.12.2027 -
Luca Langoni Colorado Rapids Activo 133 / 139 40% 3 24.12.2027 -
Sere Matsumura Shonan Bellmare Activo 122 / 115 40% 1 24.12.2027 -
Yusi Alavés Activo 132 / 137 40% 1 24.12.2027 -
Rodrigo Chagas Juventud Activo 117 / 121 40% 2 23.12.2027 -
Kévin Denkey FC Cincinnati Activo 123 / 125 40% 5 23.12.2027 -
Tomás Porra Barracas Central Activo 114 / 122 40% 4 23.12.2027 -
Alejo Veliz Bahia Activo 141 / 131 40% 2 23.12.2027 -
Samuel Lucero Defensa y Justicia Activo 119 / 128 40% 1 23.12.2027 -
Miguel Rodríguez Alavés Activo 139 / 134 40% 1 23.12.2027 -
Cheikh Sabaly Vancouver Whitecaps Activo 117 / 129 40% 8 22.12.2027 -
Wessam Abou Ali Columbus Crew Activo 134 / 123 40% 1 22.12.2027 -
José Hurtado Bragantino Activo 128 / 127 40% 1 22.12.2027 -
Shinnosuke Nakatani Gamba Osaka Activo 124 / 135 40% 1 22.12.2027 -
Gabriel Díaz Patronato Activo 109 / 111 40% 3 21.12.2027 -
Tobías Leiva Estudiantes Activo 116 / 122 40% 1 21.12.2027 -
Ivar Jenner Dewa United Activo 105 / 112 40% 1 21.12.2027 -
Jefry Zapata Danubio Activo 122 / 116 40% 2 20.12.2027 -
Brandon Vázquez Austin FC Activo 127 / 122 40% 3 20.12.2027 -
Asahi Uenaka Gamba Osaka Activo 126 / 121 65% 6 19.12.2027 Aprobar
Erison Kawasaki Frontale Activo 127 / 134 40% 4 19.12.2027 -
Fabrício Bruno Cruzeiro Activo 137 / 133 40% 1 19.12.2027 -
Hayato Araki Sanfrecce Hiroshima Activo 131 / 130 40% 1 19.12.2027 -
Arthur Santos Activo 143 / 133 40% 1 19.12.2027 -
Igor Jesus Los Angeles Football Club Activo 123 / 119 40% 2 18.12.2027 -
Peter Langhoff Djurgarden Activo 116 / 121 40% 1 18.12.2027 -
Adnan Courtois KV Oostende Activo 148 / 142 40% 4 17.12.2027 -
Mohamed-Ali Cho Hull City Activo 146 / 138 40% 4 17.12.2027 -
Tadeo Allende Inter Miami CF Activo 121 / 122 40% 5 17.12.2027 -
Koki Ogawa Jubilo Iwata Activo 124 / 117 40% 1 17.12.2027 -
Youssef En-Nesyri Al-Ittihad Activo 144 / 154 40% 1 17.12.2027 -
Alexander Díaz Deportivo Riestra Activo 128 / 116 40% 4 16.12.2027 -
Bruno Gomes Internacional Activo 133 / 128 40% 1 16.12.2027 -
Renan Lodi Atlético Mineiro Activo 140 / 135 40% 1 16.12.2027 -
Asahi Sasaki Kawasaki Frontale Activo 132 / 133 40% 1 16.12.2027 -
Mbekezeli Mbokazi Chicago Fire Activo 126 / 131 40% 8 15.12.2027 -
Brooke Norton-Cuffy Inter Miami CF Activo 131 / 133 40% 2 15.12.2027 -
Philippe Ndinga Philadelphia Union Activo 118 / 125 40% 4 14.12.2027 -
Arthur Cabral Botafogo Activo 137 / 131 40% 2 14.12.2027 -
Femi Seriki Sheffield United Activo 131 / 138 40% 1 14.12.2027 -
Agustín Anello Philadelphia Union Activo 131 / 124 40% 6 13.12.2027 -
Juan Pablo Córdoba Gimnasia y Esgrima Activo 112 / 114 40% 2 13.12.2027 -
Maizon Rodríguez Unión de Santa Fe Activo 123 / 120 40% 1 13.12.2027 -
Ignacio Perruzzi San Lorenzo Activo 133 / 132 40% 1 13.12.2027 -
Teboho Mokoena Independiente Activo 142 / 131 40% 1 12.12.2027 -
Axel Frugone Defensor Sporting Activo 120 / 120 40% 1 12.12.2027 -
Fredrik Sjøvold Bodo/Glimt Activo 136 / 133 40% 1 12.12.2027 -
Andrés Ferrari Sint-Truiden Activo 120 / 125 40% 1 12.12.2027 -
John Kennedy Fluminense Activo 125 / 131 40% 1 11.12.2027 -
João Klauss LA Galaxy Activo 136 / 122 40% 1 11.12.2027 -
Iván Romero Levante Activo 138 / 142 40% 1 10.12.2027 -
Ruben van Bommel Ferencvaros Activo 133 / 139 40% 2 09.12.2027 -
Braian Aranda Agropecuario Argentino Activo 117 / 114 40% 4 09.12.2027 -
Duncan McGuire Houston Dynamo Activo 125 / 126 40% 6 09.12.2027 -
Leonardo Campana New England Revolution Activo 120 / 131 40% 1 09.12.2027 -
Lucas Villalba Botafogo Activo 125 / 122 40% 1 09.12.2027 -
Kein Sato FC Tokyo Activo 134 / 139 40% 4 08.12.2027 -
Yuta Goke Vissel Kobe Activo 116 / 129 40% 4 08.12.2027 -
Gonzalo Fulham Activo 147 / 151 40% 5 06.12.2027 -
Armindo Sieb Los Angeles Football Club Activo 131 / 130 40% 9 06.12.2027 -
Luca Martínez Dupuy Godoy Cruz Activo 124 / 125 40% 4 06.12.2027 -
Levi Garcia Spartak Moscow Activo 144 / 128 40% 2 06.12.2027 -
Williams Manyama SuperSport United Activo 123 / 128 40% 2 05.12.2027 -
Fernando Álvarez Deportivo Cali Activo 114 / 113 40% 2 05.12.2027 -
Alan Velasco Boca Juniors Activo 134 / 133 40% 6 05.12.2027 -
Sead Hakšabanović Malmo FF Activo 127 / 120 40% 4 02.12.2027 -
Alejo Cruz Juventud Activo 127 / 124 40% 1 01.12.2027 -
Nicolás Romero Minnesota United FC Activo 133 / 125 40% 1 27.11.2027 -
Mateo Mendoza Godoy Cruz Activo 135 / 129 40% 1 27.11.2027 -
Ralph Orquin Seattle Sounders Activo 129 / 123 40% 1 24.11.2027 -
Edwuin Cetré Estudiantes Activo 129 / 128 40% 2 22.11.2027 -
Sam Surridge Nashville SC Activo 124 / 124 40% 1 22.11.2027 -
Mutsuki Kato Sanfrecce Hiroshima Activo 138 / 131 40% 6 21.11.2027 -
Alexis Cuello San Lorenzo Activo 125 / 125 40% 2 21.11.2027 -
Rafael Navarro St. Louis CITY SC Activo 118 / 131 40% 3 20.11.2027 -
Bénie Traoré New York City Activo 130 / 121 40% 3 20.11.2027 -
Alejandro Piedrahita Tigres Activo 124 / 125 40% 1 20.11.2027 -
Daiya Tono Yokohama F. Marinos Activo 124 / 128 40% 5 19.11.2027 -
Tomás Jacob Atlanta United FC Activo 124 / 125 40% 2 19.11.2027 -
Valentin Vidal Union Espanola Activo 110 / 110 40% 1 19.11.2027 -
Francisco Facello Chacarita Juniors Activo 109 / 111 40% 1 19.11.2027 -
Morgan Guilavogui Real Salt Lake Activo 137 / 122 40% 3 16.11.2027 -
Diego García Malmo FF Activo 125 / 123 40% 3 15.11.2027 -
Tomás Chancalay Minnesota United FC Activo 125 / 118 40% 2 12.11.2027 -
Paulos Abraham Hammarby Activo 121 / 122 40% 3 11.11.2027 -
Mathias Tønnessen Tromso Activo 115 / 114 40% 1 10.11.2027 -
Justo Giani Universidad Catolica Activo 129 / 119 40% 2 05.11.2027 -
Daniel Herrera San Lorenzo Activo 115 / 125 40% 1 03.11.2027 -
Noah Persson Hammarby Activo 130 / 129 40% 1 03.11.2027 -
Nəriman Axundzadə Columbus Crew Activo 128 / 119 40% 2 30.10.2027 -
Jonatan Torres Cerro Porteno Activo 125 / 123 40% 3 21.10.2027 -
Kerwin Vargas Seattle Sounders Activo 117 / 126 40% 3 20.10.2027 -
Santiago González Tigre Activo 127 / 127 40% 2 17.10.2027 -
Morrison Agyemang Charlotte Football Club Activo 127 / 113 40% 1 14.10.2027 -
Josh Sargent Toronto FC Activo 139 / 130 40% 4 11.10.2027 -
Elías Báez Atlanta United FC Activo 127 / 126 40% 3 09.10.2027 -
Sondre Auklend Bodo/Glimt Activo 120 / 138 40% 1 30.09.2027 -
Joel Poiso Penarol Activo 107 / 119 40% 1 29.09.2027 -
Hayato Tanaka Kashiwa Reysol Activo 120 / 126 40% 1 29.09.2027 -
Valentín Serrano Arsenal Activo 106 / 109 40% 1 26.09.2027 -
Max Fenger IFK Goteborg Activo 120 / 125 40% 2 21.09.2027 -
Ilay Feingold New England Revolution Activo 117 / 114 40% 1 19.09.2027 -
Federico Girotti Alianza Lima Activo 122 / 125 40% 1 16.09.2027 -
Maurice Malone Minnesota United FC Activo 116 / 131 40% 1 12.09.2027 -
Alexander Aravena Portland Timbers Activo 134 / 135 40% 1 11.09.2027 -
José Mercado Union Magdalena Activo 114 / 111 40% 1 08.09.2027 -
Jhojan Torres Santa Fe Activo 118 / 124 40% 1 08.09.2027 -
Hijiri Kato Omiya Ardija Activo 127 / 127 69% 1 24.07.2027 Aprobar
Ryoya Yamashita Gamba Osaka Activo 136 / 122 69% 1 23.07.2027 Aprobar
Pedro de la Vega FC Dallas Activo 133 / 134 66% 1 22.07.2027 Aprobar
Sampson Dweh Anderlecht Perdido 133 / 134 66% 1 22.07.2027 -
Luiz Henrique West Ham United Perdido 142 / 143 68% 1 22.07.2027 Aprobar
Keinan Davis Udinese Activo 138 / 132 40% 3 21.07.2027 -
Riley Owen Trento Activo 106 / 110 40% 3 21.07.2027 -
Ahmed Kutucu Konyaspor Activo 119 / 133 40% 2 21.07.2027 -
Simón Pinto Palestino Activo 99 / 101 40% 1 21.07.2027 -
Tiago Freitas Benfica Activo 111 / 118 40% 3 20.07.2027 -
Andrea Pinamonti Lazio Activo 148 / 139 40% 8 20.07.2027 -
Martim Cunha Porto Activo 108 / 111 40% 2 20.07.2027 -
Sam Bell Bristol City Activo 123 / 124 40% 1 20.07.2027 -
Elijah Adebayo Luton Town Activo 128 / 126 40% 5 19.07.2027 -
Ilyas Ansah Hull City Activo 136 / 139 40% 4 19.07.2027 -
Dom Ballard Leyton Orient Activo 128 / 123 40% 3 19.07.2027 -
Will Lankshear Middlesbrough Activo 124 / 128 40% 10 18.07.2027 -
Zane Albarus Cambridge United Activo 93 / 108 40% 2 18.07.2027 -
Eddy Kouadio Crotone Activo 107 / 107 40% 1 18.07.2027 -
Tyrese Campbell Sheffield United Activo 138 / 124 40% 7 17.07.2027 -
Soungoutou Magassa West Ham United Activo 134 / 137 40% 3 17.07.2027 -
Kane Wilson Milton Keynes Dons Activo 113 / 111 40% 2 17.07.2027 -
Nobel Mendy Hull City Activo 133 / 140 40% 1 17.07.2027 -
Daniel Vernattus Metalist Activo 96 / 90 40% 2 16.07.2027 -
Cheveyo Tsawa Club Brugge Activo 119 / 125 40% 1 16.07.2027 -
Gonçalo Oliveira Benfica Activo 116 / 118 40% 3 15.07.2027 -
Zeki Amdouni Burnley Activo 135 / 139 40% 3 14.07.2027 -
Armando Broja Burnley Activo 141 / 136 40% 2 14.07.2027 -
Stefanos Tzimas Brighton Activo 144 / 146 40% 1 14.07.2027 -
Patson Daka Leicester City Activo 126 / 124 40% 7 13.07.2027 -
Caleb Yirenkyi Coventry City Activo 135 / 148 40% 4 13.07.2027 -
Darlin Yongwa Norwich City Activo 134 / 130 40% 3 12.07.2027 -
Jens Odgaard Bologna Activo 141 / 136 40% 4 12.07.2027 -
Dylan Lawlor Cardiff City Activo 119 / 125 40% 3 12.07.2027 -
Cristian Shpendi Cesena Activo 133 / 136 40% 1 12.07.2027 -
Alpha Touré FC Metz Activo 112 / 129 40% 1 12.07.2027 -
Tobias Slotsager Casertana Activo 115 / 116 40% 1 12.07.2027 -
Bosun Lawal Stoke City Activo 134 / 125 40% 1 12.07.2027 -
Josh Edwards Charlton Athletic Activo 120 / 129 40% 1 12.07.2027 -
Ethan Pye Stockport County Activo 119 / 119 40% 3 10.07.2027 -
Dominic Calvert-Lewin Leeds United Activo 151 / 138 40% 8 10.07.2027 -
Barış Alper Yılmaz Galatasaray Activo 147 / 157 40% 2 10.07.2027 -
Benedict Hollerbach Mainz 05 Activo 138 / 136 40% 2 10.07.2027 -
Bobby Thomas Coventry City Activo 132 / 137 40% 1 10.07.2027 -
Archie Collins Peterborough United Activo 123 / 116 40% 1 10.07.2027 -
Rivaldo Grobler Free State Stars Activo 99 / 103 40% 1 09.07.2027 -
Lucas Høgsberg RC Strasbourg Activo 138 / 142 40% 1 09.07.2027 -
Marezi Portsmouth Activo 121 / 123 40% 1 08.07.2027 -
Aidomo Emakhu Oxford United Activo 130 / 127 40% 1 07.07.2027 -
Karlan Grant West Bromwich Albion Activo 125 / 119 40% 1 07.07.2027 -
Santiago Pierotti Lecce Activo 138 / 131 40% 1 07.07.2027 -
Matteo Rover Reggiana Activo 118 / 115 40% 1 06.07.2027 -
Alfie Doughty Millwall Activo 131 / 129 40% 2 05.07.2027 -
Pablo Felipe West Ham United Activo 143 / 141 40% 3 05.07.2027 -
Lewis Morgan SuperSport United Activo 126 / 117 40% 4 05.07.2027 -
Tom Cannon Sheffield United Activo 127 / 134 40% 4 03.07.2027 -
Yousef Salech Cardiff City Activo 129 / 131 40% 2 03.07.2027 -
Oh Hyeon-Gyu Besiktas Activo 114 / 134 40% 2 02.07.2027 -
Nicolò Zaniolo Udinese Activo 152 / 138 40% 3 01.07.2027 -
Bernardo Lima Porto Activo 95 / 112 40% 4 01.07.2027 -
Ismaïla Sarr Crystal Palace Activo 155 / 150 40% 6 30.06.2027 -
Lorent Tolaj Plymouth Argyle Activo 119 / 117 40% 2 30.06.2027 -
Dwight McNeil Crystal Palace Activo 146 / 140 40% 1 30.06.2027 -
Cameron Archer Southampton Activo 136 / 124 40% 6 29.06.2027 -
Leo Castledine Middlesbrough Activo 127 / 137 40% 3 29.06.2027 -
Jofre Torrents Ajax Activo 132 / 129 40% 2 29.06.2027 -
Daniel Kelly Oxford United Activo 111 / 126 40% 1 29.06.2027 -
Moussa Dembélé CR Belouizdad Activo 122 / 137 40% 4 28.06.2027 -
Che Adams Torino Activo 150 / 144 40% 4 27.06.2027 -
Richard Koné Queens Park Rangers Activo 130 / 128 40% 1 27.06.2027 -
Davide Bartesaghi AC Milan Activo 136 / 138 40% 3 25.06.2027 -
Sebastián Ramírez Jaguares Activo 103 / 117 40% 2 25.06.2027 -
Joe Gelhardt Hull City Activo 132 / 130 40% 2 24.06.2027 -
Romelu Castagne KV Oostende Activo 135 / 143 40% 1 24.06.2027 -
Ross Stewart Southampton Activo 133 / 131 40% 3 23.06.2027 -
Aune Heggebø West Bromwich Albion Activo 136 / 132 40% 4 22.06.2027 -
Matvey Kislyak CSKA Moscow Activo 132 / 147 40% 4 22.06.2027 -
Joel McGregor Swindon Town Activo 87 / 95 40% 5 22.06.2027 -
Tommy Conway Middlesbrough Activo 138 / 126 40% 2 21.06.2027 -
Christ Inao Oulaï Fiorentina Activo 138 / 137 40% 1 21.06.2027 -
Petar Musa Adana Demirspor Activo 148 / 134 40% 6 18.06.2027 -
Sascha Britschgi Padova Activo 117 / 130 40% 4 18.06.2027 -
Joel Ezra Enyimba Activo 97 / 94 40% 1 18.06.2027 -
Adam Wharton Crystal Palace Activo 150 / 150 40% 1 16.06.2027 -
Hayden Carter Blackburn Rovers Activo 129 / 126 40% 1 16.06.2027 -
Nathan Collins Brentford Activo 147 / 146 40% 1 16.06.2027 -
Jan Bürger Gillingham Activo 113 / 124 40% 4 15.06.2027 -
Kazunari Kita Real Sociedad Activo 92 / 108 40% 1 15.06.2027 -
Christos Mouzakitis Hull City Activo 131 / 135 40% 7 14.06.2027 -
Kristoffer Lund Birmingham Activo 128 / 135 40% 2 14.06.2027 -
Ilario Monterisi Frosinone Activo 133 / 130 40% 1 14.06.2027 -
Nikola Vlašić Torino Activo 148 / 147 40% 1 10.06.2027 -
Leandro Martins Benfica Activo 95 / 99 40% 3 09.06.2027 -
Morgan Whittaker Middlesbrough Activo 131 / 132 40% 4 08.06.2027 -
Rey Manaj Sivasspor Activo 121 / 128 40% 2 08.06.2027 -
Florentino Luís Ipswich Town Activo 145 / 140 40% 4 07.06.2027 -
Pedro Porro Tottenham Activo 156 / 147 40% 1 07.06.2027 -
Nicolò Tresoldi Club Brugge Activo 127 / 134 40% 3 05.06.2027 -
Yoane Wissa Newcastle United Activo 138 / 143 40% 1 04.06.2027 -
Pelle Mattsson Norwich City Activo 131 / 129 40% 1 04.06.2027 -
Finley McAllister Grimsby Town Activo 97 / 95 40% 2 03.06.2027 -
Harry Clarke Preston Activo 136 / 126 40% 1 30.05.2027 -
Mirko Topić Norwich City Activo 117 / 115 40% 2 29.05.2027 -
Daniel Tonoli Modena Activo 117 / 127 40% 2 29.05.2027 -
Luis Vázquez Birmingham Activo 129 / 125 40% 2 28.05.2027 -
Jacob Greaves Ipswich Town Activo 135 / 136 40% 2 27.05.2027 -
James Morris Leyton Orient Activo 121 / 118 40% 1 27.05.2027 -
Harvey White Stevenage Activo 124 / 112 40% 1 27.05.2027 -
Nuno Tavares Lazio Activo 147 / 141 40% 1 26.05.2027 -
Jack Currie Oxford United Activo 117 / 123 40% 1 26.05.2027 -
Edoardo Bove Watford Activo 125 / 134 40% 1 26.05.2027 -
Noah Sadiki Sunderland Activo 137 / 149 40% 4 25.05.2027 -
Lewis Ferguson Bologna Activo 146 / 145 40% 3 24.05.2027 -
Zak Swanson Bradford City Activo 120 / 119 40% 2 24.05.2027 -
Derry Murkin Derby County Activo 127 / 132 40% 1 24.05.2027 -
Kerem Aktürkoğlu Fenerbahce Activo 154 / 143 40% 6 23.05.2027 -
Keagan Phiri Platinum Stars Activo 110 / 108 40% 2 20.05.2027 -
Hamish Douglas Grimsby Town Activo 98 / 99 40% 2 17.05.2027 -
Keagan Tau Ajax Cape Town Activo 101 / 108 40% 1 16.05.2027 -
Luke McNally Bristol City Activo 126 / 133 40% 2 15.05.2027 -
Callum Doyle Wrexham Activo 134 / 129 40% 1 15.05.2027 -
Dávid Strelec Middlesbrough Activo 142 / 142 40% 1 13.05.2027 -
Matías Gómez Granada Activo 113 / 117 40% 2 12.05.2027 -
Shea Charles Southampton Activo 138 / 132 40% 2 11.05.2027 -
Wilson Isidor Sunderland Activo 130 / 137 40% 3 11.05.2027 -
Finn Jeltsch VfB Stuttgart Activo 133 / 138 40% 1 10.05.2027 -
Dany Mota Monza Activo 139 / 133 40% 1 09.05.2027 -
Taras Mykhavko Dynamo Kyiv Activo 132 / 115 40% 1 05.05.2027 -
Konan N'Dri Lecce Activo 121 / 131 40% 1 05.05.2027 -
Mateo Pellegrino Fiorentina Activo 139 / 142 40% 1 02.05.2027 -
Oli McBurnie Hull City Activo 134 / 140 40% 3 01.05.2027 -
Adriano Bertaccini Anderlecht Activo 134 / 124 40% 1 30.04.2027 -
Bali Mumba Huddersfield Town Activo 109 / 114 40% 1 30.04.2027 -
Percy Jali Free State Stars Activo 84 / 100 40% 1 29.04.2027 -
Adam Idah Swansea City Activo 118 / 123 40% 1 28.04.2027 -
Will Fish Cardiff City Activo 118 / 124 40% 1 25.04.2027 -
Lucas Da Cunha Como Activo 146 / 139 40% 1 25.04.2027 -
Welington Southampton Activo 131 / 136 40% 4 20.04.2027 -
Habib Diarra Sunderland Activo 141 / 137 40% 2 20.04.2027 -
Tiago Djaló Besiktas Activo 127 / 135 40% 1 20.04.2027 -
Darryl Bakola Padova Activo 108 / 114 40% 1 18.04.2027 -
Willem Geubbels Lecce Activo 132 / 136 40% 1 13.04.2027 -
Juan Mosquera Sheffield Wednesday Activo 133 / 121 40% 2 09.04.2027 -
Max Bird Birmingham Activo 139 / 135 40% 1 09.04.2027 -
Ernie Weaver AFC Wimbledon Activo 103 / 124 40% 1 09.04.2027 -
Adam Bakoune Ospitaletto Activo 105 / 105 40% 1 09.04.2027 -
Eduardo Felicíssimo Sporting CP Activo 100 / 109 40% 1 07.04.2027 -
Mandla Erasmus SuperSport United Activo 129 / 112 40% 2 06.04.2027 -
Luka Jović AEK Activo 148 / 135 40% 1 06.04.2027 -
Keane Lewis-Potter Brentford Activo 146 / 139 40% 1 04.04.2027 -
Lewis Bate Stockport County Activo 115 / 128 40% 1 01.04.2027 -
Jacques Ekomié Wrexham Activo 137 / 132 40% 1 01.04.2027 -
Ethan Galbraith Swansea City Activo 133 / 140 40% 1 01.04.2027 -
Emmanuel Boateng Hapoel Tel Aviv Activo 131 / 128 40% 1 30.03.2027 -
Noah Okafor Leeds United Activo 144 / 141 40% 1 30.03.2027 -
Bamba Dieng Crvena Zvezda Activo 119 / 140 40% 1 26.03.2027 -
Ilay Camara Anderlecht Activo 133 / 136 40% 1 23.03.2027 -
Mattéo Guendouzi Fenerbahce Activo 152 / 147 40% 1 21.03.2027 -
Michael Kayode Brentford Activo 156 / 156 40% 1 21.03.2027 -
Luciano Gondou CSKA Moscow Activo 144 / 140 40% 1 19.03.2027 -
Sondre Langås Derby County Activo 131 / 120 40% 1 19.03.2027 -
Leif Davis Ipswich Town Activo 143 / 132 40% 1 04.01.2027 -
Jordan Beyer Burnley Activo 143 / 129 40% 1 02.01.2027 -
Ronnie Edwards Queens Park Rangers Activo 127 / 123 40% 1 02.01.2027 -
Tom Fellows Southampton Activo 129 / 136 40% 2 29.12.2026 -
Lukáš Červ Viktoria Plzen Activo 134 / 124 40% 1 27.12.2026 -
Sidiki Chérif Coventry City Activo 129 / 132 40% 1 26.12.2026 -
Jack McGlynn Stoke City Activo 125 / 122 40% 1 25.12.2026 -
Scott Twine Bristol City Activo 132 / 131 40% 1 24.12.2026 -
Ben Ahmed Kohili Paradou Activo 94 / 116 40% 1 23.12.2026 -
Gustavo Mantuan Zenit Activo 122 / 135 40% 1 23.12.2026 -
Finn Azaz Southampton Activo 124 / 119 40% 2 21.12.2026 -
Sayed Abu Farchi Maccabi Tel Aviv Activo 121 / 126 40% 1 20.12.2026 -
Leon Grgić Sturm Graz Activo 116 / 138 40% 1 18.12.2026 -
Marquinhos Spartak Moscow Activo 145 / 141 40% 1 17.12.2026 -
Isaac Price West Bromwich Albion Activo 124 / 119 40% 1 16.12.2026 -
Iwan Morgan Grimsby Town Activo 114 / 107 40% 1 15.12.2026 -
Mateus Mané Manchester United Activo 133 / 146 40% 1 15.12.2026 -
Jack Rudoni Coventry City Activo 141 / 142 40% 2 13.12.2026 -
Suleiman Camara Slovan Bratislava Activo 131 / 130 40% 1 13.12.2026 -
Danil Glebov Dinamo Moscow Activo 132 / 119 40% 2 11.12.2026 -
Alagie Wally Veres Activo 98 / 97 40% 1 09.12.2026 -
Ante Brekalo Zadar Activo 109 / 123 40% 1 09.12.2026 -
Imrân Louza Watford Activo 137 / 136 40% 1 21.11.2026 -
Eric Meza Estudiantes Activo 119 / 128 40% 1 21.11.2026 -
Bryan Ramírez FC Cincinnati Activo 126 / 113 40% 1 19.11.2026 -
Antonios Papadopoulos Lugano Activo 123 / 136 40% 1 12.11.2026 -
Shuto Nakano Sanfrecce Hiroshima Activo 134 / 134 40% 1 12.11.2026 -
Vicente Poggi Godoy Cruz Activo 125 / 115 40% 1 08.11.2026 -
César Ibáñez Huracán Activo 121 / 126 40% 1 08.11.2026 -
Rodrigo Huescas FC Copenhagen Activo 144 / 118 40% 1 08.11.2026 -
Karel Spáčil Viktoria Plzen Activo 126 / 143 40% 2 06.11.2026 -
Sota Miura Kawasaki Frontale Activo 126 / 131 40% 1 06.11.2026 -
Leandro Lozano Boca Juniors Activo 133 / 115 40% 1 06.11.2026 -
Ezekiel Kwame Alladoh Philadelphia Union Activo 125 / 127 40% 1 09.09.2026 -
Youssoufa Moukoko FC Copenhagen Activo 119 / 138 40% 1 07.09.2026 -
Kosei Suwama Yokohama F. Marinos Activo 116 / 98 62% 1 17.08.2026 Aprobar